sensor_id;sensor_type;location;lat;lon;timestamp;P1;durP1;ratioP1;P2;durP2;ratioP2
40953;SDS011;26686;50.130;8.710;2023-02-01T00:04:54;2.80;;;2.60;;
40953;SDS011;26686;50.130;8.710;2023-02-01T00:09:56;3.55;;;2.97;;
40953;SDS011;26686;50.130;8.710;2023-02-01T00:14:57;4.72;;;2.55;;
40953;SDS011;26686;50.130;8.710;2023-02-01T00:19:59;3.85;;;3.00;;
40953;SDS011;26686;50.130;8.710;2023-02-01T00:25:01;4.47;;;2.72;;
40953;SDS011;26686;50.130;8.710;2023-02-01T00:30:02;3.97;;;2.78;;
40953;SDS011;26686;50.130;8.710;2023-02-01T00:35:04;3.65;;;2.95;;
40953;SDS011;26686;50.130;8.710;2023-02-01T00:40:06;2.65;;;2.45;;
40953;SDS011;26686;50.130;8.710;2023-02-01T00:45:08;5.03;;;3.53;;
40953;SDS011;26686;50.130;8.710;2023-02-01T00:50:10;3.78;;;2.70;;
40953;SDS011;26686;50.130;8.710;2023-02-01T00:55:12;4.45;;;2.75;;
40953;SDS011;26686;50.130;8.710;2023-02-01T01:00:13;2.78;;;2.50;;
40953;SDS011;26686;50.130;8.710;2023-02-01T01:05:15;3.22;;;2.80;;
40953;SDS011;26686;50.130;8.710;2023-02-01T01:10:17;3.97;;;2.75;;
40953;SDS011;26686;50.130;8.710;2023-02-01T01:15:18;3.78;;;3.45;;
40953;SDS011;26686;50.130;8.710;2023-02-01T01:20:20;3.88;;;3.33;;
40953;SDS011;26686;50.130;8.710;2023-02-01T01:25:23;5.53;;;3.65;;
40953;SDS011;26686;50.130;8.710;2023-02-01T01:30:24;3.70;;;3.30;;
40953;SDS011;26686;50.130;8.710;2023-02-01T01:35:25;5.18;;;4.00;;
40953;SDS011;26686;50.130;8.710;2023-02-01T01:40:27;5.25;;;4.75;;
40953;SDS011;26686;50.130;8.710;2023-02-01T01:45:30;6.05;;;4.43;;
40953;SDS011;26686;50.130;8.710;2023-02-01T01:50:42;7.87;;;4.37;;
40953;SDS011;26686;50.130;8.710;2023-02-01T01:55:49;5.32;;;4.50;;
40953;SDS011;26686;50.130;8.710;2023-02-01T02:00:53;4.80;;;4.32;;
40953;SDS011;26686;50.130;8.710;2023-02-01T02:05:55;4.75;;;3.47;;
40953;SDS011;26686;50.130;8.710;2023-02-01T02:10:59;4.38;;;3.88;;
40953;SDS011;26686;50.130;8.710;2023-02-01T02:16:38;5.90;;;4.07;;
40953;SDS011;26686;50.130;8.710;2023-02-01T02:43:46;5.55;;;5.03;;
40953;SDS011;26686;50.130;8.710;2023-02-01T02:49:18;7.70;;;5.55;;
40953;SDS011;26686;50.130;8.710;2023-02-01T02:54:34;6.32;;;4.95;;
40953;SDS011;26686;50.130;8.710;2023-02-01T02:59:48;7.50;;;5.57;;
40953;SDS011;26686;50.130;8.710;2023-02-01T03:05:08;6.57;;;5.30;;
40953;SDS011;26686;50.130;8.710;2023-02-01T03:10:13;5.97;;;5.28;;
40953;SDS011;26686;50.130;8.710;2023-02-01T03:15:23;6.32;;;5.82;;
40953;SDS011;26686;50.130;8.710;2023-02-01T03:20:30;5.35;;;4.85;;
40953;SDS011;26686;50.130;8.710;2023-02-01T03:25:33;5.30;;;4.57;;
40953;SDS011;26686;50.130;8.710;2023-02-01T03:30:36;9.05;;;4.78;;
40953;SDS011;26686;50.130;8.710;2023-02-01T03:35:45;4.88;;;4.47;;
40953;SDS011;26686;50.130;8.710;2023-02-01T03:40:52;5.75;;;3.78;;
40953;SDS011;26686;50.130;8.710;2023-02-01T03:46:00;5.20;;;4.00;;
40953;SDS011;26686;50.130;8.710;2023-02-01T03:51:06;5.35;;;4.22;;
40953;SDS011;26686;50.130;8.710;2023-02-01T03:56:10;4.33;;;3.80;;
40953;SDS011;26686;50.130;8.710;2023-02-01T04:01:12;4.78;;;3.00;;
40953;SDS011;26686;50.130;8.710;2023-02-01T04:06:14;3.67;;;3.03;;
40953;SDS011;26686;50.130;8.710;2023-02-01T04:11:15;3.80;;;3.40;;
40953;SDS011;26686;50.130;8.710;2023-02-01T04:16:17;4.22;;;3.67;;
40953;SDS011;26686;50.130;8.710;2023-02-01T04:21:18;6.35;;;2.92;;
40953;SDS011;26686;50.130;8.710;2023-02-01T04:26:20;4.13;;;3.50;;
40953;SDS011;26686;50.130;8.710;2023-02-01T04:31:22;6.05;;;3.83;;
40953;SDS011;26686;50.130;8.710;2023-02-01T04:36:26;5.17;;;3.87;;
40953;SDS011;26686;50.130;8.710;2023-02-01T04:41:28;5.22;;;4.03;;
40953;SDS011;26686;50.130;8.710;2023-02-01T04:46:30;4.95;;;4.22;;
40953;SDS011;26686;50.130;8.710;2023-02-01T04:51:31;5.55;;;4.60;;
40953;SDS011;26686;50.130;8.710;2023-02-01T04:56:33;4.30;;;3.80;;
40953;SDS011;26686;50.130;8.710;2023-02-01T05:06:39;3.92;;;3.53;;
40953;SDS011;26686;50.130;8.710;2023-02-01T05:11:41;5.00;;;3.70;;
40953;SDS011;26686;50.130;8.710;2023-02-01T05:17:01;4.35;;;3.90;;
40953;SDS011;26686;50.130;8.710;2023-02-01T05:22:02;8.75;;;3.75;;
40953;SDS011;26686;50.130;8.710;2023-02-01T05:27:04;6.88;;;4.10;;
40953;SDS011;26686;50.130;8.710;2023-02-01T05:32:05;4.30;;;3.88;;
40953;SDS011;26686;50.130;8.710;2023-02-01T05:37:22;5.95;;;3.75;;
40953;SDS011;26686;50.130;8.710;2023-02-01T05:42:23;5.05;;;3.53;;
40953;SDS011;26686;50.130;8.710;2023-02-01T05:47:25;6.50;;;4.10;;
40953;SDS011;26686;50.130;8.710;2023-02-01T05:52:26;6.65;;;3.50;;
40953;SDS011;26686;50.130;8.710;2023-02-01T05:57:28;5.50;;;3.35;;
40953;SDS011;26686;50.130;8.710;2023-02-01T06:02:30;5.68;;;3.83;;
40953;SDS011;26686;50.130;8.710;2023-02-01T06:07:32;6.05;;;3.58;;
40953;SDS011;26686;50.130;8.710;2023-02-01T06:12:33;8.65;;;3.53;;
40953;SDS011;26686;50.130;8.710;2023-02-01T06:17:34;6.65;;;3.50;;
40953;SDS011;26686;50.130;8.710;2023-02-01T06:22:36;5.53;;;2.97;;
40953;SDS011;26686;50.130;8.710;2023-02-01T06:27:38;5.75;;;3.22;;
40953;SDS011;26686;50.130;8.710;2023-02-01T06:32:39;6.25;;;2.88;;
40953;SDS011;26686;50.130;8.710;2023-02-01T06:37:41;9.27;;;3.53;;
40953;SDS011;26686;50.130;8.710;2023-02-01T06:42:43;10.38;;;3.92;;
40953;SDS011;26686;50.130;8.710;2023-02-01T06:47:44;4.65;;;2.85;;
40953;SDS011;26686;50.130;8.710;2023-02-01T06:52:45;9.00;;;3.83;;
40953;SDS011;26686;50.130;8.710;2023-02-01T06:57:47;9.73;;;3.50;;
40953;SDS011;26686;50.130;8.710;2023-02-01T07:02:49;8.55;;;3.58;;
40953;SDS011;26686;50.130;8.710;2023-02-01T07:07:51;10.50;;;3.58;;
40953;SDS011;26686;50.130;8.710;2023-02-01T07:12:55;10.57;;;3.33;;
40953;SDS011;26686;50.130;8.710;2023-02-01T07:17:58;10.30;;;3.58;;
40953;SDS011;26686;50.130;8.710;2023-02-01T07:22:59;6.97;;;3.15;;
40953;SDS011;26686;50.130;8.710;2023-02-01T07:28:01;13.05;;;5.93;;
40953;SDS011;26686;50.130;8.710;2023-02-01T07:33:02;8.50;;;4.18;;
40953;SDS011;26686;50.130;8.710;2023-02-01T07:38:04;10.57;;;3.75;;
40953;SDS011;26686;50.130;8.710;2023-02-01T07:43:05;11.80;;;4.55;;
40953;SDS011;26686;50.130;8.710;2023-02-01T07:48:08;9.18;;;3.50;;
40953;SDS011;26686;50.130;8.710;2023-02-01T07:53:10;8.45;;;3.45;;
40953;SDS011;26686;50.130;8.710;2023-02-01T07:58:11;7.75;;;2.92;;
40953;SDS011;26686;50.130;8.710;2023-02-01T08:03:13;11.40;;;3.72;;
40953;SDS011;26686;50.130;8.710;2023-02-01T08:08:17;10.55;;;3.58;;
40953;SDS011;26686;50.130;8.710;2023-02-01T08:13:18;7.20;;;3.15;;
40953;SDS011;26686;50.130;8.710;2023-02-01T08:18:20;8.82;;;2.92;;
40953;SDS011;26686;50.130;8.710;2023-02-01T08:23:22;10.10;;;2.92;;
40953;SDS011;26686;50.130;8.710;2023-02-01T08:28:24;6.93;;;3.00;;
40953;SDS011;26686;50.130;8.710;2023-02-01T08:33:25;7.03;;;2.80;;
40953;SDS011;26686;50.130;8.710;2023-02-01T08:38:27;7.43;;;2.83;;
40953;SDS011;26686;50.130;8.710;2023-02-01T08:43:28;10.00;;;3.08;;
40953;SDS011;26686;50.130;8.710;2023-02-01T08:48:30;7.90;;;3.25;;
40953;SDS011;26686;50.130;8.710;2023-02-01T08:53:32;11.93;;;3.75;;
40953;SDS011;26686;50.130;8.710;2023-02-01T08:58:34;9.07;;;2.97;;
40953;SDS011;26686;50.130;8.710;2023-02-01T09:03:35;8.60;;;2.90;;
40953;SDS011;26686;50.130;8.710;2023-02-01T09:08:38;7.95;;;2.85;;
40953;SDS011;26686;50.130;8.710;2023-02-01T09:13:40;8.57;;;3.10;;
40953;SDS011;26686;50.130;8.710;2023-02-01T09:18:44;8.68;;;3.63;;
40953;SDS011;26686;50.130;8.710;2023-02-01T09:24:05;7.88;;;2.78;;
40953;SDS011;26686;50.130;8.710;2023-02-01T09:29:07;9.65;;;2.95;;
40953;SDS011;26686;50.130;8.710;2023-02-01T09:34:12;10.25;;;3.53;;
40953;SDS011;26686;50.130;8.710;2023-02-01T09:39:13;7.00;;;3.28;;
40953;SDS011;26686;50.130;8.710;2023-02-01T09:44:21;8.73;;;3.55;;
40953;SDS011;26686;50.130;8.710;2023-02-01T09:49:40;7.50;;;2.50;;
40953;SDS011;26686;50.130;8.710;2023-02-01T09:54:52;10.27;;;2.85;;
40953;SDS011;26686;50.130;8.710;2023-02-01T10:00:05;10.20;;;2.53;;
40953;SDS011;26686;50.130;8.710;2023-02-01T10:05:18;7.28;;;2.53;;
40953;SDS011;26686;50.130;8.710;2023-02-01T10:10:31;11.23;;;3.38;;
40953;SDS011;26686;50.130;8.710;2023-02-01T10:16:04;8.02;;;2.78;;
40953;SDS011;26686;50.130;8.710;2023-02-01T10:21:25;8.13;;;2.75;;
40953;SDS011;26686;50.130;8.710;2023-02-01T10:26:45;9.73;;;2.50;;
40953;SDS011;26686;50.130;8.710;2023-02-01T10:31:56;11.05;;;3.05;;
40953;SDS011;26686;50.130;8.710;2023-02-01T10:37:08;7.07;;;2.80;;
40953;SDS011;26686;50.130;8.710;2023-02-01T10:42:20;8.65;;;2.92;;
40953;SDS011;26686;50.130;8.710;2023-02-01T10:47:25;11.02;;;2.83;;
40953;SDS011;26686;50.130;8.710;2023-02-01T10:52:30;7.40;;;3.15;;
40953;SDS011;26686;50.130;8.710;2023-02-01T10:57:35;9.18;;;3.13;;
40953;SDS011;26686;50.130;8.710;2023-02-01T11:02:37;11.63;;;3.70;;
40953;SDS011;26686;50.130;8.710;2023-02-01T11:07:39;10.63;;;2.88;;
40953;SDS011;26686;50.130;8.710;2023-02-01T11:12:47;11.73;;;3.63;;
40953;SDS011;26686;50.130;8.710;2023-02-01T11:17:55;10.25;;;3.50;;
40953;SDS011;26686;50.130;8.710;2023-02-01T11:22:57;9.02;;;3.08;;
40953;SDS011;26686;50.130;8.710;2023-02-01T11:27:59;9.63;;;3.38;;
40953;SDS011;26686;50.130;8.710;2023-02-01T11:33:01;9.02;;;2.85;;
40953;SDS011;26686;50.130;8.710;2023-02-01T11:38:20;9.85;;;2.38;;
40953;SDS011;26686;50.130;8.710;2023-02-01T11:43:24;11.80;;;3.00;;
40953;SDS011;26686;50.130;8.710;2023-02-01T11:48:32;9.30;;;3.40;;
40953;SDS011;26686;50.130;8.710;2023-02-01T12:04:45;9.60;;;2.88;;
40953;SDS011;26686;50.130;8.710;2023-02-01T12:10:05;8.20;;;2.90;;
40953;SDS011;26686;50.130;8.710;2023-02-01T12:21:03;10.77;;;4.38;;
40953;SDS011;26686;50.130;8.710;2023-02-01T12:42:03;8.07;;;2.70;;
40953;SDS011;26686;50.130;8.710;2023-02-01T12:47:22;11.90;;;3.45;;
40953;SDS011;26686;50.130;8.710;2023-02-01T12:57:37;10.40;;;2.95;;
40953;SDS011;26686;50.130;8.710;2023-02-01T13:02:51;13.38;;;2.95;;
40953;SDS011;26686;50.130;8.710;2023-02-01T13:08:08;10.15;;;2.75;;
40953;SDS011;26686;50.130;8.710;2023-02-01T13:18:18;9.18;;;2.50;;
40953;SDS011;26686;50.130;8.710;2023-02-01T13:34:55;8.57;;;2.88;;
40953;SDS011;26686;50.130;8.710;2023-02-01T13:45:13;10.85;;;2.78;;
40953;SDS011;26686;50.130;8.710;2023-02-01T14:00:36;9.90;;;2.60;;
40953;SDS011;26686;50.130;8.710;2023-02-01T14:42:04;6.65;;;1.92;;
40953;SDS011;26686;50.130;8.710;2023-02-01T14:47:26;8.35;;;2.00;;
40953;SDS011;26686;50.130;8.710;2023-02-01T14:52:40;7.20;;;2.33;;
40953;SDS011;26686;50.130;8.710;2023-02-01T14:57:46;10.98;;;2.10;;
40953;SDS011;26686;50.130;8.710;2023-02-01T15:02:51;6.00;;;1.33;;
40953;SDS011;26686;50.130;8.710;2023-02-01T15:07:54;6.75;;;1.70;;
40953;SDS011;26686;50.130;8.710;2023-02-01T15:12:55;6.35;;;1.85;;
40953;SDS011;26686;50.130;8.710;2023-02-01T15:17:57;8.18;;;2.05;;
40953;SDS011;26686;50.130;8.710;2023-02-01T15:23:02;6.97;;;1.80;;
40953;SDS011;26686;50.130;8.710;2023-02-01T15:28:08;6.32;;;1.92;;
40953;SDS011;26686;50.130;8.710;2023-02-01T15:38:21;6.57;;;2.28;;
40953;SDS011;26686;50.130;8.710;2023-02-01T15:43:34;7.32;;;1.98;;
40953;SDS011;26686;50.130;8.710;2023-02-01T15:48:45;6.55;;;1.60;;
40953;SDS011;26686;50.130;8.710;2023-02-01T15:53:56;7.18;;;1.55;;
40953;SDS011;26686;50.130;8.710;2023-02-01T15:59:15;6.32;;;1.65;;
40953;SDS011;26686;50.130;8.710;2023-02-01T16:04:25;7.93;;;2.22;;
40953;SDS011;26686;50.130;8.710;2023-02-01T16:14:39;11.18;;;2.33;;
40953;SDS011;26686;50.130;8.710;2023-02-01T16:19:41;9.07;;;2.10;;
40953;SDS011;26686;50.130;8.710;2023-02-01T16:24:43;6.05;;;2.25;;
40953;SDS011;26686;50.130;8.710;2023-02-01T16:29:44;5.15;;;1.67;;
40953;SDS011;26686;50.130;8.710;2023-02-01T16:34:45;5.50;;;1.38;;
40953;SDS011;26686;50.130;8.710;2023-02-01T16:39:48;6.80;;;1.80;;
40953;SDS011;26686;50.130;8.710;2023-02-01T16:44:49;8.68;;;2.00;;
40953;SDS011;26686;50.130;8.710;2023-02-01T16:49:51;5.70;;;1.98;;
40953;SDS011;26686;50.130;8.710;2023-02-01T16:54:52;5.50;;;1.95;;
40953;SDS011;26686;50.130;8.710;2023-02-01T16:59:54;5.38;;;1.70;;
40953;SDS011;26686;50.130;8.710;2023-02-01T17:04:55;4.63;;;1.80;;
40953;SDS011;26686;50.130;8.710;2023-02-01T17:09:57;6.22;;;1.63;;
40953;SDS011;26686;50.130;8.710;2023-02-01T17:14:58;6.85;;;2.05;;
40953;SDS011;26686;50.130;8.710;2023-02-01T17:20:01;6.63;;;1.85;;
40953;SDS011;26686;50.130;8.710;2023-02-01T17:25:06;5.18;;;1.98;;
40953;SDS011;26686;50.130;8.710;2023-02-01T17:30:14;7.88;;;1.95;;
40953;SDS011;26686;50.130;8.710;2023-02-01T17:35:20;12.73;;;2.53;;
40953;SDS011;26686;50.130;8.710;2023-02-01T17:40:24;7.75;;;1.95;;
40953;SDS011;26686;50.130;8.710;2023-02-01T17:45:32;5.72;;;2.30;;
40953;SDS011;26686;50.130;8.710;2023-02-01T17:50:37;4.70;;;1.73;;
40953;SDS011;26686;50.130;8.710;2023-02-01T17:55:40;8.43;;;2.50;;
40953;SDS011;26686;50.130;8.710;2023-02-01T18:00:45;10.50;;;3.05;;
40953;SDS011;26686;50.130;8.710;2023-02-01T18:05:48;7.05;;;2.33;;
40953;SDS011;26686;50.130;8.710;2023-02-01T18:10:57;7.18;;;2.38;;
40953;SDS011;26686;50.130;8.710;2023-02-01T18:16:01;6.03;;;2.55;;
40953;SDS011;26686;50.130;8.710;2023-02-01T18:21:03;7.72;;;1.83;;
40953;SDS011;26686;50.130;8.710;2023-02-01T18:26:07;7.15;;;2.25;;
40953;SDS011;26686;50.130;8.710;2023-02-01T18:31:32;7.05;;;2.28;;
40953;SDS011;26686;50.130;8.710;2023-02-01T18:36:34;6.05;;;2.20;;
40953;SDS011;26686;50.130;8.710;2023-02-01T18:41:35;8.55;;;2.50;;
40953;SDS011;26686;50.130;8.710;2023-02-01T18:46:37;5.75;;;2.10;;
40953;SDS011;26686;50.130;8.710;2023-02-01T18:51:38;7.00;;;2.90;;
40953;SDS011;26686;50.130;8.710;2023-02-01T18:56:39;8.27;;;2.47;;
40953;SDS011;26686;50.130;8.710;2023-02-01T19:01:43;7.50;;;2.22;;
40953;SDS011;26686;50.130;8.710;2023-02-01T19:06:45;8.55;;;2.00;;
40953;SDS011;26686;50.130;8.710;2023-02-01T19:11:46;5.63;;;2.00;;
40953;SDS011;26686;50.130;8.710;2023-02-01T19:16:48;5.72;;;2.17;;
40953;SDS011;26686;50.130;8.710;2023-02-01T19:21:50;7.30;;;1.90;;
40953;SDS011;26686;50.130;8.710;2023-02-01T19:26:52;5.55;;;1.95;;
40953;SDS011;26686;50.130;8.710;2023-02-01T19:31:54;5.75;;;2.35;;
40953;SDS011;26686;50.130;8.710;2023-02-01T19:36:55;7.75;;;2.80;;
40953;SDS011;26686;50.130;8.710;2023-02-01T19:41:57;5.18;;;2.20;;
40953;SDS011;26686;50.130;8.710;2023-02-01T19:46:59;9.25;;;2.85;;
40953;SDS011;26686;50.130;8.710;2023-02-01T19:52:01;6.45;;;2.28;;
40953;SDS011;26686;50.130;8.710;2023-02-01T19:57:03;8.85;;;3.10;;
40953;SDS011;26686;50.130;8.710;2023-02-01T20:02:04;9.63;;;3.15;;
40953;SDS011;26686;50.130;8.710;2023-02-01T20:07:05;7.72;;;2.05;;
40953;SDS011;26686;50.130;8.710;2023-02-01T20:12:10;5.47;;;2.20;;
40953;SDS011;26686;50.130;8.710;2023-02-01T20:17:13;6.40;;;2.75;;
40953;SDS011;26686;50.130;8.710;2023-02-01T20:22:16;7.07;;;2.40;;
40953;SDS011;26686;50.130;8.710;2023-02-01T20:27:17;7.88;;;2.63;;
40953;SDS011;26686;50.130;8.710;2023-02-01T20:32:19;6.22;;;2.88;;
40953;SDS011;26686;50.130;8.710;2023-02-01T20:37:20;8.75;;;2.88;;
40953;SDS011;26686;50.130;8.710;2023-02-01T20:42:22;6.95;;;2.15;;
40953;SDS011;26686;50.130;8.710;2023-02-01T20:47:23;6.53;;;2.33;;
40953;SDS011;26686;50.130;8.710;2023-02-01T20:52:25;7.40;;;2.45;;
40953;SDS011;26686;50.130;8.710;2023-02-01T20:57:26;6.03;;;2.50;;
40953;SDS011;26686;50.130;8.710;2023-02-01T21:02:27;6.70;;;2.78;;
40953;SDS011;26686;50.130;8.710;2023-02-01T21:07:29;6.85;;;2.58;;
40953;SDS011;26686;50.130;8.710;2023-02-01T21:12:30;4.15;;;2.15;;
40953;SDS011;26686;50.130;8.710;2023-02-01T21:17:32;7.93;;;2.55;;
40953;SDS011;26686;50.130;8.710;2023-02-01T21:22:33;8.30;;;3.13;;
40953;SDS011;26686;50.130;8.710;2023-02-01T21:27:35;7.95;;;2.83;;
40953;SDS011;26686;50.130;8.710;2023-02-01T21:32:36;8.23;;;2.83;;
40953;SDS011;26686;50.130;8.710;2023-02-01T21:37:38;6.40;;;2.47;;
40953;SDS011;26686;50.130;8.710;2023-02-01T21:42:39;9.65;;;2.45;;
40953;SDS011;26686;50.130;8.710;2023-02-01T21:47:42;5.68;;;2.00;;
40953;SDS011;26686;50.130;8.710;2023-02-01T21:52:44;7.30;;;2.20;;
40953;SDS011;26686;50.130;8.710;2023-02-01T21:57:46;7.22;;;2.60;;
40953;SDS011;26686;50.130;8.710;2023-02-01T22:02:47;5.90;;;2.03;;
40953;SDS011;26686;50.130;8.710;2023-02-01T22:07:49;7.35;;;2.22;;
40953;SDS011;26686;50.130;8.710;2023-02-01T22:12:50;7.35;;;2.42;;
40953;SDS011;26686;50.130;8.710;2023-02-01T22:17:52;5.90;;;1.90;;
40953;SDS011;26686;50.130;8.710;2023-02-01T22:22:54;8.85;;;2.65;;
40953;SDS011;26686;50.130;8.710;2023-02-01T22:27:56;5.95;;;2.17;;
40953;SDS011;26686;50.130;8.710;2023-02-01T22:33:17;9.25;;;2.40;;
40953;SDS011;26686;50.130;8.710;2023-02-01T22:38:19;8.05;;;2.58;;
40953;SDS011;26686;50.130;8.710;2023-02-01T22:43:21;5.65;;;1.90;;
40953;SDS011;26686;50.130;8.710;2023-02-01T22:48:23;4.93;;;1.70;;
40953;SDS011;26686;50.130;8.710;2023-02-01T22:53:24;3.95;;;1.70;;
40953;SDS011;26686;50.130;8.710;2023-02-01T22:58:26;5.10;;;1.73;;
40953;SDS011;26686;50.130;8.710;2023-02-01T23:03:28;5.88;;;2.17;;
40953;SDS011;26686;50.130;8.710;2023-02-01T23:08:30;6.28;;;2.08;;
40953;SDS011;26686;50.130;8.710;2023-02-01T23:13:34;6.43;;;2.53;;
40953;SDS011;26686;50.130;8.710;2023-02-01T23:18:37;5.68;;;2.05;;
40953;SDS011;26686;50.130;8.710;2023-02-01T23:23:39;7.72;;;1.95;;
40953;SDS011;26686;50.130;8.710;2023-02-01T23:28:45;4.82;;;1.50;;
40953;SDS011;26686;50.130;8.710;2023-02-01T23:33:47;6.28;;;2.22;;
40953;SDS011;26686;50.130;8.710;2023-02-01T23:38:49;4.93;;;1.85;;
40953;SDS011;26686;50.130;8.710;2023-02-01T23:43:51;6.57;;;1.75;;
40953;SDS011;26686;50.130;8.710;2023-02-01T23:48:59;6.07;;;2.03;;
40953;SDS011;26686;50.130;8.710;2023-02-01T23:54:01;3.65;;;1.30;;
40953;SDS011;26686;50.130;8.710;2023-02-01T23:59:05;5.93;;;1.60;;
